createdAt,value
2022-11-10T00:01:10.587Z,10.20
2022-11-10T00:03:58.099Z,10.20
2022-11-10T00:06:46.985Z,10.20
2022-11-10T00:09:32.748Z,10.10
2022-11-10T00:12:19.289Z,10.10
2022-11-10T00:15:24.262Z,10.10
2022-11-10T00:18:09.928Z,10.10
2022-11-10T00:20:55.116Z,10.10
2022-11-10T00:23:42.438Z,10.10
2022-11-10T00:26:28.358Z,10.10
2022-11-10T00:29:14.040Z,10.10
2022-11-10T00:31:59.630Z,10.10
2022-11-10T00:34:45.328Z,10.10
2022-11-10T00:37:30.847Z,10.00
2022-11-10T00:40:16.632Z,10.00
2022-11-10T00:43:02.160Z,10.00
2022-11-10T00:45:49.053Z,10.00
2022-11-10T00:48:34.718Z,10.00
2022-11-10T00:51:26.068Z,10.00
2022-11-10T00:54:12.002Z,10.00
2022-11-10T00:56:58.010Z,10.00
2022-11-10T00:59:43.720Z,10.00
2022-11-10T01:02:29.540Z,10.00
2022-11-10T01:05:15.298Z,10.00
2022-11-10T01:08:00.945Z,10.00
2022-11-10T01:10:46.862Z,10.00
2022-11-10T01:13:32.766Z,10.00
2022-11-10T01:16:24.463Z,10.00
2022-11-10T01:19:10.185Z,10.00
2022-11-10T01:21:57.958Z,10.00
2022-11-10T01:24:43.551Z,10.00
2022-11-10T01:27:29.352Z,10.00
2022-11-10T01:30:15.470Z,10.00
2022-11-10T01:33:01.028Z,9.90
2022-11-10T01:35:46.600Z,9.90
2022-11-10T01:38:34.430Z,9.90
2022-11-10T01:41:19.931Z,10.00
2022-11-10T01:44:19.842Z,9.90
2022-11-10T01:47:05.331Z,9.90
2022-11-10T01:49:51.204Z,9.90
2022-11-10T01:52:37.378Z,9.90
2022-11-10T01:55:24.469Z,9.80
2022-11-10T01:58:13.887Z,9.90
2022-11-10T02:01:01.897Z,9.90
2022-11-10T02:03:55.866Z,9.90
2022-11-10T02:06:43.598Z,9.90
2022-11-10T02:09:29.389Z,9.90
2022-11-10T02:12:15.749Z,9.90
2022-11-10T02:15:06.122Z,9.90
2022-11-10T02:17:51.522Z,9.90
2022-11-10T02:20:37.514Z,9.90
2022-11-10T02:23:32.295Z,9.90
2022-11-10T02:26:29.913Z,9.90
2022-11-10T02:29:15.838Z,9.90
2022-11-10T02:32:01.468Z,9.90
2022-11-10T02:34:46.882Z,9.90
2022-11-10T02:37:32.360Z,9.80
2022-11-10T02:40:18.765Z,9.80
2022-11-10T02:43:07.197Z,9.80
2022-11-10T02:45:52.985Z,9.70
2022-11-10T02:48:39.591Z,9.60
2022-11-10T02:51:25.357Z,9.70
2022-11-10T02:54:11.040Z,9.60
2022-11-10T02:56:56.909Z,9.60
2022-11-10T02:59:42.846Z,9.50
2022-11-10T03:02:32.204Z,9.50
2022-11-10T03:05:17.686Z,9.50
2022-11-10T03:08:05.373Z,9.40
2022-11-10T03:10:54.245Z,9.40
2022-11-10T03:14:00.435Z,9.40
2022-11-10T03:16:45.468Z,9.30
2022-11-10T03:19:31.083Z,9.30
2022-11-10T03:22:16.576Z,9.20
2022-11-10T03:25:02.014Z,9.20
2022-11-10T03:27:47.436Z,9.20
2022-11-10T03:30:33.101Z,9.20
2022-11-10T03:33:18.793Z,9.20
2022-11-10T03:36:07.872Z,9.20
2022-11-10T03:38:53.541Z,9.10
2022-11-10T03:41:38.879Z,9.10
2022-11-10T03:44:24.565Z,9.10
2022-11-10T03:47:10.092Z,9.10
2022-11-10T03:49:56.045Z,9.10
2022-11-10T03:52:43.814Z,9.10
2022-11-10T03:55:29.753Z,9.10
2022-11-10T03:58:15.154Z,9.10
2022-11-10T04:01:00.893Z,9.10
2022-11-10T04:03:51.279Z,9.10
2022-11-10T04:06:56.194Z,9.10
2022-11-10T04:09:41.836Z,9.10
2022-11-10T04:12:45.721Z,9.10
2022-11-10T04:15:51.736Z,9.10
2022-11-10T04:18:37.398Z,9.10
2022-11-10T04:21:22.855Z,9.10
2022-11-10T04:24:09.286Z,9.10
2022-11-10T04:26:54.742Z,9.10
2022-11-10T04:29:40.696Z,9.10
2022-11-10T04:32:26.280Z,9.10
2022-11-10T04:35:12.166Z,9.10
2022-11-10T04:37:57.854Z,9.10
2022-11-10T04:40:43.392Z,9.10
2022-11-10T04:43:29.680Z,9.10
2022-11-10T04:46:21.127Z,9.10
2022-11-10T04:49:07.419Z,9.10
2022-11-10T04:51:53.143Z,9.10
2022-11-10T04:54:38.382Z,9.10
2022-11-10T04:57:26.599Z,9.10
2022-11-10T05:00:12.921Z,9.10
2022-11-10T05:03:02.448Z,9.10
2022-11-10T05:05:47.760Z,9.10
2022-11-10T05:08:34.418Z,9.10
2022-11-10T05:11:19.794Z,9.10
2022-11-10T05:14:05.679Z,9.10
2022-11-10T05:16:51.361Z,9.00
2022-11-10T05:19:37.146Z,9.00
2022-11-10T05:22:24.129Z,9.00
2022-11-10T05:25:11.224Z,9.00
2022-11-10T05:27:56.653Z,9.00
2022-11-10T05:30:43.078Z,9.00
2022-11-10T05:33:28.697Z,9.00
2022-11-10T05:36:14.543Z,8.90
2022-11-10T05:39:05.261Z,9.00
2022-11-10T05:41:51.243Z,8.90
2022-11-10T05:44:36.519Z,9.00
2022-11-10T05:47:22.104Z,9.00
2022-11-10T05:50:09.530Z,9.00
2022-11-10T05:52:55.607Z,9.00
2022-11-10T05:55:41.365Z,8.90
2022-11-10T05:58:26.686Z,8.90
2022-11-10T06:01:12.146Z,8.90
2022-11-10T06:03:57.953Z,8.90
2022-11-10T06:06:43.478Z,8.90
2022-11-10T06:09:29.355Z,8.90
2022-11-10T06:12:15.823Z,8.90
2022-11-10T06:15:02.924Z,8.90
2022-11-10T06:17:48.836Z,8.90
2022-11-10T06:20:34.168Z,9.00
2022-11-10T06:23:19.925Z,9.00
2022-11-10T06:26:05.608Z,9.00
2022-11-10T06:28:50.937Z,9.00
2022-11-10T06:31:36.518Z,9.00
2022-11-10T06:34:21.984Z,9.00
2022-11-10T06:37:07.667Z,9.00
2022-11-10T06:39:53.425Z,9.10
2022-11-10T06:42:39.269Z,9.20
2022-11-10T06:45:28.530Z,9.20
2022-11-10T06:48:14.700Z,9.20
2022-11-10T06:51:01.498Z,9.20
2022-11-10T06:53:47.557Z,9.20
2022-11-10T06:56:33.322Z,9.20
2022-11-10T06:59:18.811Z,9.20
2022-11-10T07:02:04.864Z,9.20
2022-11-10T07:04:50.841Z,9.10
2022-11-10T07:07:36.699Z,9.20
2022-11-10T07:10:21.910Z,9.20
2022-11-10T07:13:07.411Z,9.10
2022-11-10T07:15:53.085Z,9.10
2022-11-10T07:18:38.696Z,9.20
2022-11-10T07:21:24.296Z,9.20
2022-11-10T07:24:09.931Z,9.20
2022-11-10T07:26:55.369Z,9.20
2022-11-10T07:29:40.821Z,9.10
2022-11-10T07:32:26.842Z,9.10
2022-11-10T07:35:12.529Z,9.20
2022-11-10T07:38:01.688Z,9.20
2022-11-10T07:40:51.963Z,9.20
2022-11-10T07:43:38.431Z,9.20
2022-11-10T07:46:23.875Z,9.20
2022-11-10T07:49:09.374Z,9.30
2022-11-10T07:51:54.808Z,9.30
2022-11-10T07:54:40.297Z,9.30
2022-11-10T07:57:25.858Z,9.40
2022-11-10T08:00:12.700Z,9.40
2022-11-10T08:03:06.202Z,9.40
2022-11-10T08:05:53.420Z,9.50
2022-11-10T08:08:39.070Z,9.50
2022-11-10T08:11:24.692Z,9.50
2022-11-10T08:14:10.018Z,9.60
2022-11-10T08:16:55.741Z,9.60
2022-11-10T08:19:41.403Z,9.70
2022-11-10T08:22:26.909Z,9.70
2022-11-10T08:25:12.315Z,9.80
2022-11-10T08:28:00.007Z,9.90
2022-11-10T08:30:47.649Z,10.00
2022-11-10T08:33:33.309Z,10.10
2022-11-10T08:36:20.405Z,10.10
2022-11-10T08:39:06.930Z,10.20
2022-11-10T08:41:52.343Z,10.20
2022-11-10T08:44:38.116Z,10.40
2022-11-10T08:47:23.592Z,10.40
2022-11-10T08:50:10.428Z,10.50
2022-11-10T08:52:57.135Z,10.60
2022-11-10T08:55:44.297Z,10.70
2022-11-10T08:58:30.012Z,10.80
2022-11-10T09:01:15.419Z,10.90
2022-11-10T09:04:00.875Z,10.90
2022-11-10T09:06:46.852Z,11.00
2022-11-10T09:09:32.513Z,11.00
2022-11-10T09:12:18.348Z,11.10
2022-11-10T09:15:04.253Z,11.20
2022-11-10T09:17:51.053Z,11.20
2022-11-10T09:20:38.839Z,11.30
2022-11-10T09:23:25.580Z,11.30
2022-11-10T09:26:11.768Z,11.40
2022-11-10T09:28:57.647Z,11.50
2022-11-10T09:31:46.369Z,11.60
2022-11-10T09:34:31.981Z,11.60
2022-11-10T09:37:17.798Z,11.70
2022-11-10T09:40:03.405Z,11.80
2022-11-10T09:42:49.693Z,11.80
2022-11-10T09:45:42.927Z,11.90
2022-11-10T09:48:34.514Z,11.90
2022-11-10T09:51:26.058Z,12.00
2022-11-10T09:54:39.354Z,12.10
2022-11-10T09:57:26.975Z,12.20
2022-11-10T10:00:17.416Z,12.30
2022-11-10T10:03:06.219Z,12.40
2022-11-10T10:06:11.378Z,12.50
2022-11-10T10:09:30.096Z,12.60
2022-11-10T10:12:43.411Z,12.60
2022-11-10T10:16:06.498Z,12.70
2022-11-10T10:19:21.093Z,12.80
2022-11-10T10:22:30.836Z,12.80
2022-11-10T10:25:25.820Z,12.90
2022-11-10T10:28:23.741Z,13.00
2022-11-10T10:31:26.838Z,13.00
2022-11-10T10:34:16.866Z,13.00
2022-11-10T10:37:02.858Z,13.10
2022-11-10T10:39:52.090Z,13.10
2022-11-10T10:42:38.330Z,13.20
2022-11-10T10:45:29.303Z,13.30
2022-11-10T10:48:29.581Z,13.40
2022-11-10T10:51:29.291Z,13.50
2022-11-10T10:54:30.719Z,13.50
2022-11-10T10:57:31.623Z,13.60
2022-11-10T11:00:24.012Z,13.80
2022-11-10T11:03:39.143Z,13.90
2022-11-10T11:06:30.171Z,13.90
2022-11-10T11:09:17.060Z,14.00
2022-11-10T11:12:10.152Z,13.90
2022-11-10T11:15:28.651Z,13.80
2022-11-10T11:18:19.392Z,13.80
2022-11-10T11:21:23.914Z,13.80
2022-11-10T11:24:20.776Z,13.90
2022-11-10T11:27:24.058Z,13.90
2022-11-10T11:30:32.640Z,14.00
2022-11-10T11:33:29.329Z,14.00
2022-11-10T11:36:47.827Z,14.00
2022-11-10T11:39:48.179Z,14.00
2022-11-10T11:42:53.822Z,14.10
2022-11-10T11:45:49.833Z,14.10
2022-11-10T11:48:52.559Z,14.20
2022-11-10T11:51:52.962Z,14.40
2022-11-10T11:55:14.194Z,14.40
2022-11-10T11:58:26.604Z,14.50
2022-11-10T12:01:38.702Z,14.50
2022-11-10T12:04:42.008Z,14.50
2022-11-10T12:07:32.881Z,14.50
2022-11-10T12:10:46.582Z,14.40
2022-11-10T12:13:38.454Z,14.50
2022-11-10T12:16:31.875Z,14.50
2022-11-10T12:19:39.690Z,14.50
2022-11-10T12:22:47.961Z,14.60
2022-11-10T12:25:49.121Z,14.50
2022-11-10T12:28:40.643Z,14.50
2022-11-10T12:31:30.321Z,14.40
2022-11-10T12:34:34.702Z,14.50
2022-11-10T12:37:53.850Z,14.60
2022-11-10T12:40:49.211Z,14.50
2022-11-10T12:43:52.702Z,14.60
2022-11-10T12:46:50.943Z,14.60
2022-11-10T12:49:42.486Z,14.50
2022-11-10T12:52:50.712Z,14.60
2022-11-10T12:55:44.812Z,14.50
2022-11-10T12:58:31.193Z,14.50
2022-11-10T13:01:20.697Z,14.60
2022-11-10T13:04:06.814Z,14.60
2022-11-10T13:07:13.291Z,14.60
2022-11-10T13:10:18.367Z,14.60
2022-11-10T13:13:13.629Z,14.60
2022-11-10T13:15:59.558Z,14.60
2022-11-10T13:18:44.950Z,14.70
2022-11-10T13:21:52.257Z,14.80
2022-11-10T13:24:40.688Z,14.90
2022-11-10T13:27:45.725Z,15.00
2022-11-10T13:30:46.330Z,15.00
2022-11-10T13:33:37.715Z,15.00
2022-11-10T13:36:47.285Z,15.00
2022-11-10T13:39:33.823Z,14.90
2022-11-10T13:42:29.713Z,14.90
2022-11-10T13:45:39.942Z,14.90
2022-11-10T13:48:44.703Z,14.90
2022-11-10T13:51:45.839Z,14.80
2022-11-10T13:54:57.123Z,14.80
2022-11-10T13:58:00.574Z,14.70
2022-11-10T14:00:51.119Z,14.60
2022-11-10T14:03:45.547Z,14.60
2022-11-10T14:06:45.999Z,14.60
2022-11-10T14:09:42.183Z,14.50
2022-11-10T14:12:48.502Z,14.60
2022-11-10T14:15:47.920Z,14.60
2022-11-10T14:18:41.070Z,14.50
2022-11-10T14:21:55.447Z,14.50
2022-11-10T14:25:03.290Z,14.50
2022-11-10T14:27:51.522Z,14.50
2022-11-10T14:31:02.672Z,14.60
2022-11-10T14:34:09.793Z,14.60
2022-11-10T14:36:58.157Z,14.50
2022-11-10T14:39:47.065Z,14.50
2022-11-10T14:42:34.591Z,14.50
2022-11-10T14:45:41.306Z,14.50
2022-11-10T14:48:29.931Z,14.50
2022-11-10T14:51:18.600Z,14.40
2022-11-10T14:54:04.455Z,14.40
2022-11-10T14:56:50.357Z,14.30
2022-11-10T14:59:37.834Z,14.30
2022-11-10T15:02:23.302Z,14.30
2022-11-10T15:05:14.756Z,14.20
2022-11-10T15:08:02.876Z,14.20
2022-11-10T15:10:50.848Z,14.10
2022-11-10T15:13:39.994Z,14.10
2022-11-10T15:16:29.842Z,14.00
2022-11-10T15:19:27.622Z,14.00
2022-11-10T15:22:12.830Z,13.90
2022-11-10T15:25:08.598Z,13.90
2022-11-10T15:28:14.435Z,13.80
2022-11-10T15:31:06.604Z,13.80
2022-11-10T15:33:55.975Z,13.80
2022-11-10T15:36:41.743Z,13.80
2022-11-10T15:39:28.109Z,13.70
2022-11-10T15:42:18.584Z,13.60
2022-11-10T15:45:05.082Z,13.60
2022-11-10T15:47:51.041Z,13.50
2022-11-10T15:50:36.988Z,13.50
2022-11-10T15:53:53.409Z,13.40
2022-11-10T15:56:39.302Z,13.40
2022-11-10T15:59:24.868Z,13.30
2022-11-10T16:02:24.853Z,13.30
2022-11-10T16:05:12.327Z,13.20
2022-11-10T16:07:58.193Z,13.20
2022-11-10T16:10:46.652Z,13.20
2022-11-10T16:13:32.612Z,13.10
2022-11-10T16:16:19.421Z,13.10
2022-11-10T16:19:06.183Z,13.00
2022-11-10T16:21:51.679Z,13.00
2022-11-10T16:24:37.739Z,13.00
2022-11-10T16:27:23.190Z,12.90
2022-11-10T16:30:15.402Z,12.90
2022-11-10T16:33:01.035Z,12.80
2022-11-10T16:35:52.611Z,12.90
2022-11-10T16:38:38.424Z,12.80
2022-11-10T16:41:24.546Z,12.80
2022-11-10T16:44:16.933Z,12.80
2022-11-10T16:47:03.168Z,12.80
2022-11-10T16:49:51.060Z,12.80
2022-11-10T16:52:36.686Z,12.70
2022-11-10T16:55:22.333Z,12.80
2022-11-10T16:58:08.114Z,12.70
2022-11-10T17:00:57.477Z,12.70
2022-11-10T17:03:49.608Z,12.70
2022-11-10T17:06:35.157Z,12.60
2022-11-10T17:09:26.121Z,12.60
2022-11-10T17:12:14.906Z,12.50
2022-11-10T17:15:00.522Z,12.50
2022-11-10T17:17:50.563Z,12.50
2022-11-10T17:20:39.138Z,12.40
2022-11-10T17:23:26.277Z,12.40
2022-11-10T17:26:14.214Z,12.40
2022-11-10T17:28:59.984Z,12.40
2022-11-10T17:31:45.809Z,12.40
2022-11-10T17:49:11.277Z,12.30
2022-11-10T17:51:57.497Z,12.20
2022-11-10T17:54:44.308Z,12.20
2022-11-10T17:57:29.717Z,12.20
2022-11-10T18:00:17.036Z,12.10
2022-11-10T18:03:05.881Z,12.00
2022-11-10T18:05:51.653Z,12.00
2022-11-10T18:08:38.581Z,12.00
2022-11-10T18:11:24.291Z,12.00
2022-11-10T18:14:12.401Z,11.90
2022-11-10T18:16:57.957Z,11.90
2022-11-10T18:19:45.322Z,11.90
2022-11-10T18:22:31.516Z,11.90
2022-11-10T18:25:17.355Z,11.90
2022-11-10T18:28:04.499Z,11.80
2022-11-10T18:30:50.407Z,11.80
2022-11-10T18:33:37.211Z,11.80
2022-11-10T18:36:23.069Z,11.80
2022-11-10T18:39:10.353Z,11.70
2022-11-10T18:41:56.061Z,11.70
2022-11-10T18:44:41.958Z,11.70
2022-11-10T18:47:27.663Z,11.70
2022-11-10T18:50:13.304Z,11.60
2022-11-10T18:53:00.953Z,11.60
2022-11-10T18:55:54.864Z,11.50
2022-11-10T18:58:41.712Z,11.50
2022-11-10T19:01:28.067Z,11.50
2022-11-10T19:04:16.022Z,11.50
2022-11-10T19:07:01.605Z,11.50
2022-11-10T19:09:48.273Z,11.40
2022-11-10T19:12:33.741Z,11.40
2022-11-10T19:15:20.643Z,11.40
2022-11-10T19:18:06.744Z,11.40
2022-11-10T19:20:52.163Z,11.30
2022-11-10T19:23:38.303Z,11.30
2022-11-10T19:26:26.172Z,11.30
2022-11-10T19:29:12.144Z,11.30
2022-11-10T19:31:57.732Z,11.30
2022-11-10T19:34:43.157Z,11.20
2022-11-10T19:37:34.220Z,11.20
2022-11-10T19:40:21.015Z,11.20
2022-11-10T19:43:06.879Z,11.20
2022-11-10T19:45:52.456Z,11.10
2022-11-10T19:48:38.020Z,11.10
2022-11-10T19:51:25.068Z,11.10
2022-11-10T19:54:14.275Z,11.10
2022-11-10T19:57:01.359Z,11.00
2022-11-10T19:59:46.872Z,11.00
2022-11-10T20:02:32.703Z,11.00
2022-11-10T20:05:18.466Z,11.00
2022-11-10T20:08:12.538Z,11.00
2022-11-10T20:11:16.386Z,10.90
2022-11-10T20:14:06.052Z,10.90
2022-11-10T20:16:51.761Z,10.90
2022-11-10T20:19:44.507Z,10.90
2022-11-10T20:22:29.981Z,10.80
2022-11-10T20:25:15.911Z,10.80
2022-11-10T20:28:05.918Z,10.80
2022-11-10T20:30:52.187Z,10.80
2022-11-10T20:33:38.558Z,10.80
2022-11-10T20:36:30.524Z,10.70
2022-11-10T20:39:17.574Z,10.70
2022-11-10T20:42:03.987Z,10.60
2022-11-10T20:44:51.148Z,10.70
2022-11-10T20:47:38.131Z,10.60
2022-11-10T20:50:24.683Z,10.60
2022-11-10T20:53:10.755Z,10.60
2022-11-10T20:55:57.992Z,10.60
2022-11-10T20:58:45.356Z,10.60
2022-11-10T21:01:34.242Z,10.60
2022-11-10T21:04:20.244Z,10.60
2022-11-10T21:07:05.827Z,10.60
2022-11-10T21:09:51.299Z,10.60
2022-11-10T21:12:51.837Z,10.60
2022-11-10T21:15:39.329Z,10.50
2022-11-10T21:18:28.085Z,10.50
2022-11-10T21:21:40.934Z,10.50
2022-11-10T21:24:28.273Z,10.50
2022-11-10T21:27:15.038Z,10.50
2022-11-10T21:30:01.743Z,10.50
2022-11-10T21:32:47.445Z,10.50
2022-11-10T21:35:38.138Z,10.50
2022-11-10T21:38:24.130Z,10.40
2022-11-10T21:41:09.666Z,10.40
2022-11-10T21:43:55.095Z,10.40
2022-11-10T21:46:42.242Z,10.40
2022-11-10T21:49:27.885Z,10.40
2022-11-10T21:52:14.818Z,10.40
2022-11-10T21:55:03.578Z,10.40
2022-11-10T21:57:55.123Z,10.30
2022-11-10T22:00:40.879Z,10.30
2022-11-10T22:03:28.872Z,10.30
2022-11-10T22:06:19.293Z,10.30
2022-11-10T22:09:07.358Z,10.30
2022-11-10T22:12:11.974Z,10.20
2022-11-10T22:15:16.853Z,10.30
2022-11-10T22:18:21.220Z,10.30
2022-11-10T22:21:08.059Z,10.20
2022-11-10T22:24:12.835Z,10.20
2022-11-10T22:27:05.221Z,10.20
2022-11-10T22:29:51.996Z,10.20
2022-11-10T22:32:37.537Z,10.20
2022-11-10T22:35:41.810Z,10.20
2022-11-10T22:38:29.585Z,10.20
2022-11-10T22:41:35.411Z,10.20
2022-11-10T22:44:24.870Z,10.10
2022-11-10T22:47:12.102Z,10.10
2022-11-10T22:49:57.745Z,10.10
2022-11-10T22:52:43.225Z,10.10
2022-11-10T22:55:29.763Z,10.10
2022-11-10T22:58:15.529Z,10.10
2022-11-10T23:01:07.855Z,10.10
2022-11-10T23:03:53.816Z,10.10
2022-11-10T23:06:39.683Z,10.10
2022-11-10T23:09:25.531Z,10.10
2022-11-10T23:12:11.349Z,10.10
2022-11-10T23:14:56.989Z,10.10
2022-11-10T23:17:44.738Z,10.10
2022-11-10T23:20:30.763Z,10.20
2022-11-10T23:23:18.390Z,10.10
2022-11-10T23:26:10.464Z,10.20
2022-11-10T23:28:56.076Z,10.20
2022-11-10T23:31:41.834Z,10.20
2022-11-10T23:34:27.781Z,10.20
2022-11-10T23:37:13.378Z,10.20
2022-11-10T23:40:02.377Z,10.20
2022-11-10T23:42:49.288Z,10.20
2022-11-10T23:46:00.477Z,10.20
2022-11-10T23:48:43.531Z,10.20
2022-11-10T23:51:28.944Z,10.20
2022-11-10T23:54:14.408Z,10.20
2022-11-10T23:56:59.920Z,10.30
2022-11-10T23:59:45.467Z,10.20
